Durbin, WV (26264)

7:06 AM EDT on April 29, 2017 (GMT -0400)
Bartow - Cummins Residence | | Change Station

Elev 2766 ft 38.54 °N, 79.78 °W | Updated 10 seconds ago

Thunderstorm
Thunderstorm
56.3 °F
Feels Like 56.3 °F
N
1.1
Wind Variable Wind from SW

Today
High -- | Low -- °F
--% Chance of Precip.
Yesterday
High -- | Low -- °F
Precip. -- in
Pressure 30.18 in
Visibility 9.0 miles
Clouds Few 2700 ft
Mostly Cloudy 4000 ft
Overcast 4900 ft
Dew Point 54 °F
Humidity 92%
Rainfall 0.00 in
Snow Depth Not available.
6:23 AM 8:09 PM
Waxing Crescent, 13% visible
METAR KEKN 291051Z AUTO VRB03G16KT 9SM -RA FEW027 BKN040 OVC049 16/13 A3020 RMK AO2 RAB31 SLP218 P0001 T01610128 TSNO
Pressure 30.18 in
Visibility 9.0 miles
Clouds Few 2700 ft
Mostly Cloudy 4000 ft
Overcast 4900 ft
Dew Point 54 °F
Humidity 92%
Rainfall 0.00 in
Snow Depth Not available.
6:23 AM 8:09 PM
Waxing Crescent, 13% visible
METAR KEKN 291051Z AUTO VRB03G16KT 9SM -RA FEW027 BKN040 OVC049 16/13 A3020 RMK AO2 RAB31 SLP218 P0001 T01610128 TSNO

Get Severe Weather Alerts

Thanks for signing up!

Be on the lookout for a verification email in your inbox.

You'll start receiving the daily forecast at 8 AM.

×

10-Day Weather Forecast

Almanac

Astronomy

Apr. 29, 2017 Rise Set
Actual Time
Civil Twilight
Nautical Twilight
Astronomical Twilight
Moon
Length of Visible Light
Length of Day
Tomorrow will be .
, % of the Moon is Illuminated

Today's Extremes

State Highs State Lows

Community

WunderPhotos

WunderBlog® & News

Nearby

Air Quality

  Air Quality AQ Index Pollutant
Not available.

Snow Depth

Station Depth Elevation

Earthquake Activity

City Distance Mag. Time & Date
Minimum magnitude displayed is 2.5.

Coastal Water Temperatures

Place Temperature

Stations

Nearby Weather Stations

Station Location Temp. Windchill Dew Point Humidity Wind Precip. Elev Updated Type
                   

Watches & Warnings

There are currently no watches in effect.